Assare, Brazil
Current Conditions -  °F | °C
As of 3:00 PM on Wednesday 28 Jan 2015 (Local Time) from SBJU Reporting Station
Clear Clear  
Wind Chill: 100°   Ceiling: Unl
Heat Index: 100°   Visibility: 6mi
Dew Point: 50°   Wind: 12mph
Humidity: 18%   Direction: 180°S
Pressure: 29.88"   Gusts: NA
Location:  6.87°S, 39.87°W
Report Text: SBJU 281800Z 18010KT CAVOK 38/10 Q1012
Loading
Personal Weather Stations






























Interactive Weather Map New forecast layout! Learn more

10-Day Weather Forecast

Advertisements
Track Severe Weather on mobile